aviador You're here:

K14Y Decoded Metar

in MN, USA
Report Time2018-07-22 04:36:00
UTC Time2018-07-22 04:50:59
Flight Rules vfr VFR
Wind360° at 03 kt
Visibility9999 m
Phenomena:N/A
Clouds:N/A
Expected CloudBase > 400 ft AGL from Temp-Dew spread
CeilingNone
Temp17°C (ISA +5)
Dew Point16°C (94% RH)
QNH1020 hPa
Density Alt1,890 ft
Elevation1,332 ft
Report Wrong Elevation
Raw Report
K14Y 220436Z AUTO 36003KT 10SM CLR 17/16 A3012 RMK AO2=

Extra information for K14Y:More info

Metar Taf Metar & Taf Last 4 Metars F.Rules Stats Wind Profile Meteogram Temp Stats Metar ALERT Operation Metar Decoded Social comments

AIRNAV info for K14Y